Time;durP1;ratioP1;P1;durP2;ratioP2;P2;SDS_P1;SDS_P2;PMS_P1;PMS_P2;Temp;Humidity;BMP_temperature;BMP_pressure;BME280_temperature;BME280_humidity;BME280_pressure;Samples;Min_cycle;Max_cycle;Signal;HPM_P1;HPM_P2
2021/10/10 00:01:10;;;;;;;30.43;11.00;;;;;;;;;;5017200;28;20451;-81
2021/10/10 00:03:37;;;;;;;31.70;11.50;;;;;;;;;;5017472;28;20460;-81
2021/10/10 00:06:05;;;;;;;31.33;10.90;;;;;;;;;;5016996;28;20538;-81
2021/10/10 00:08:32;;;;;;;31.40;11.00;;;;;;;;;;5016288;28;20458;-81
2021/10/10 00:10:59;;;;;;;29.70;10.93;;;;;;;;;;5017455;28;20458;-81
2021/10/10 00:13:26;;;;;;;30.53;11.30;;;;;;;;;;5017229;28;20454;-80
2021/10/10 00:15:53;;;;;;;34.73;11.73;;;;;;;;;;5017125;28;20501;-81
2021/10/10 00:18:22;;;;;;;37.53;12.43;;;;;;;;;;5015589;28;20484;-81
2021/10/10 00:20:49;;;;;;;29.33;10.80;;;;;;;;;;5017481;28;20454;-80
2021/10/10 00:23:16;;;;;;;28.73;10.67;;;;;;;;;;5017787;28;20467;-81
2021/10/10 00:25:43;;;;;;;34.37;12.93;;;;;;;;;;5017676;28;20446;-81
2021/10/10 00:28:10;;;;;;;33.40;12.23;;;;;;;;;;5012687;28;20485;-81
2021/10/10 00:30:37;;;;;;;34.33;10.80;;;;;;;;;;4997735;28;20457;-81
2021/10/10 00:33:04;;;;;;;31.90;11.00;;;;;;;;;;4997157;28;20543;-81
2021/10/10 00:35:34;;;;;;;31.93;11.80;;;;;;;;;;4998080;28;20468;-82
2021/10/10 00:38:01;;;;;;;31.80;11.07;;;;;;;;;;5000470;28;20474;-81
2021/10/10 00:40:28;;;;;;;30.13;12.10;;;;;;;;;;4998575;28;20833;-79
2021/10/10 00:42:55;;;;;;;31.37;11.60;;;;;;;;;;5010397;28;21012;-80
2021/10/10 00:45:22;;;;;;;31.10;10.17;;;;;;;;;;4995540;28;20483;-80
2021/10/10 00:47:50;;;;;;;33.50;11.20;;;;;;;;;;4998638;28;20482;-81
2021/10/10 00:50:17;;;;;;;34.67;10.47;;;;;;;;;;5017132;28;20847;-80
2021/10/10 00:52:46;;;;;;;29.90;10.00;;;;;;;;;;5019540;28;20460;-81
2021/10/10 00:55:13;;;;;;;29.80;9.43;;;;;;;;;;5019613;28;20455;-81
2021/10/10 00:57:43;;;;;;;35.77;10.70;;;;;;;;;;5019198;28;20492;-80
2021/10/10 01:00:11;;;;;;;34.67;10.87;;;;;;;;;;5018663;28;20460;-79
2021/10/10 01:02:38;;;;;;;31.23;9.80;;;;;;;;;;5018500;28;20456;-82
2021/10/10 01:05:05;;;;;;;32.27;10.37;;;;;;;;;;5019848;28;20454;-81
2021/10/10 01:07:33;;;;;;;31.03;11.07;;;;;;;;;;5019770;28;20835;-80
2021/10/10 01:10:01;;;;;;;33.53;11.40;;;;;;;;;;5001341;28;20467;-81
2021/10/10 01:12:28;;;;;;;32.30;10.80;;;;;;;;;;5000110;28;20961;-81
2021/10/10 01:14:56;;;;;;;32.40;10.10;;;;;;;;;;4999958;28;20840;-81
2021/10/10 01:17:25;;;;;;;33.03;10.80;;;;;;;;;;4999455;28;20496;-81
2021/10/10 01:19:53;;;;;;;32.70;10.80;;;;;;;;;;5016721;28;20481;-81
2021/10/10 01:22:21;;;;;;;33.20;10.87;;;;;;;;;;5019401;28;20460;-81
2021/10/10 01:24:49;;;;;;;35.37;11.07;;;;;;;;;;5019817;28;20949;-80
2021/10/10 01:27:16;;;;;;;33.10;11.00;;;;;;;;;;5019082;28;20489;-81
2021/10/10 01:29:43;;;;;;;31.50;11.83;;;;;;;;;;5003889;28;20455;-80
2021/10/10 01:32:10;;;;;;;33.27;10.70;;;;;;;;;;4999680;28;20466;-80
2021/10/10 01:34:38;;;;;;;35.07;11.67;;;;;;;;;;4999768;28;20450;-80
2021/10/10 01:37:05;;;;;;;34.83;12.03;;;;;;;;;;4999151;28;20499;-81
2021/10/10 01:39:33;;;;;;;33.83;11.07;;;;;;;;;;5013342;28;20463;-80
2021/10/10 01:42:01;;;;;;;34.93;11.80;;;;;;;;;;5019131;28;20533;-81
2021/10/10 01:44:28;;;;;;;35.27;11.43;;;;;;;;;;5018407;28;20510;-80
2021/10/10 01:46:55;;;;;;;38.23;12.33;;;;;;;;;;5018649;28;20596;-81
2021/10/10 01:49:22;;;;;;;35.40;11.03;;;;;;;;;;5006982;28;20469;-81
2021/10/10 01:51:49;;;;;;;35.53;11.63;;;;;;;;;;4999636;28;20450;-81
2021/10/10 01:54:16;;;;;;;36.63;11.27;;;;;;;;;;4999595;28;20809;-81
2021/10/10 01:56:45;;;;;;;32.47;11.23;;;;;;;;;;4998399;28;20491;-80
2021/10/10 01:59:12;;;;;;;34.67;10.40;;;;;;;;;;4999959;28;20968;-80
2021/10/10 02:01:39;;;;;;;36.00;10.80;;;;;;;;;;5013738;28;20453;-81
2021/10/10 02:04:06;;;;;;;34.80;11.60;;;;;;;;;;5018700;28;20445;-81
2021/10/10 02:06:33;;;;;;;35.17;10.80;;;;;;;;;;5018513;28;20477;-81
2021/10/10 02:09:00;;;;;;;36.43;10.53;;;;;;;;;;5009708;28;20455;-80
2021/10/10 02:11:27;;;;;;;36.13;10.50;;;;;;;;;;4999263;28;20443;-81
2021/10/10 02:13:57;;;;;;;34.73;11.03;;;;;;;;;;4998743;28;20481;-80
2021/10/10 02:16:24;;;;;;;34.03;9.43;;;;;;;;;;4998967;28;20489;-80
2021/10/10 02:18:51;;;;;;;33.20;10.17;;;;;;;;;;5005935;28;20450;-80
2021/10/10 02:21:18;;;;;;;37.20;9.03;;;;;;;;;;5018424;28;20441;-80
2021/10/10 02:23:45;;;;;;;33.20;9.03;;;;;;;;;;5018678;28;20449;-80
2021/10/10 02:26:12;;;;;;;32.97;10.00;;;;;;;;;;5017649;28;20454;-80
2021/10/10 02:28:39;;;;;;;33.80;10.10;;;;;;;;;;5018234;28;20457;-80
2021/10/10 02:31:07;;;;;;;38.83;10.90;;;;;;;;;;5018136;28;20446;-80
2021/10/10 02:33:35;;;;;;;35.03;9.97;;;;;;;;;;5018362;28;20461;-80
2021/10/10 02:36:02;;;;;;;34.40;10.40;;;;;;;;;;5018288;28;20856;-81
2021/10/10 02:38:29;;;;;;;33.30;9.87;;;;;;;;;;5014707;28;20454;-80
2021/10/10 02:40:56;;;;;;;36.53;11.30;;;;;;;;;;5002440;28;20453;-79
2021/10/10 02:43:23;;;;;;;32.93;9.57;;;;;;;;;;5005738;28;20468;-80
2021/10/10 02:45:50;;;;;;;35.73;10.50;;;;;;;;;;4998004;28;20958;-80
2021/10/10 02:48:19;;;;;;;36.53;10.60;;;;;;;;;;4998768;28;20471;-80
2021/10/10 02:50:46;;;;;;;33.43;10.10;;;;;;;;;;5016703;28;20672;-80
2021/10/10 02:53:13;;;;;;;35.70;10.60;;;;;;;;;;5016489;28;20459;-80
2021/10/10 02:55:40;;;;;;;34.40;10.80;;;;;;;;;;5017111;28;20463;-80
2021/10/10 02:58:07;;;;;;;34.13;11.70;;;;;;;;;;5016730;28;20497;-80
2021/10/10 03:00:35;;;;;;;34.73;11.90;;;;;;;;;;4997555;28;20455;-80
2021/10/10 03:03:02;;;;;;;35.73;12.00;;;;;;;;;;4998134;28;20456;-80
2021/10/10 03:05:30;;;;;;;36.40;12.30;;;;;;;;;;4997561;28;20457;-80
2021/10/10 03:07:57;;;;;;;36.80;12.00;;;;;;;;;;4996988;28;20469;-80
2021/10/10 03:10:24;;;;;;;35.40;11.53;;;;;;;;;;4996739;28;20455;-80
2021/10/10 03:12:51;;;;;;;37.37;12.00;;;;;;;;;;4997108;28;20466;-80
2021/10/10 03:15:18;;;;;;;35.20;11.73;;;;;;;;;;4997693;28;20831;-81
2021/10/10 03:17:46;;;;;;;35.30;11.70;;;;;;;;;;4997127;28;20490;-80
2021/10/10 03:20:14;;;;;;;37.10;12.30;;;;;;;;;;4997852;28;20458;-80
2021/10/10 03:22:42;;;;;;;40.20;12.70;;;;;;;;;;4997212;28;20463;-80
2021/10/10 03:25:10;;;;;;;36.50;11.07;;;;;;;;;;4997602;28;20524;-80
2021/10/10 03:27:37;;;;;;;36.23;11.20;;;;;;;;;;4997665;28;20852;-80
2021/10/10 03:30:05;;;;;;;36.53;13.17;;;;;;;;;;5011701;28;20453;-81
2021/10/10 03:32:32;;;;;;;35.97;11.90;;;;;;;;;;5016731;28;20457;-80
2021/10/10 03:34:59;;;;;;;35.53;11.03;;;;;;;;;;5016086;28;20457;-80
2021/10/10 03:37:26;;;;;;;35.40;11.47;;;;;;;;;;5016119;28;20487;-80
2021/10/10 03:39:56;;;;;;;38.00;12.30;;;;;;;;;;5016464;28;20819;-80
2021/10/10 03:42:23;;;;;;;36.40;11.00;;;;;;;;;;5017038;28;20457;-80
2021/10/10 03:44:50;;;;;;;35.13;10.90;;;;;;;;;;5016784;28;20456;-80
2021/10/10 03:47:17;;;;;;;37.07;10.77;;;;;;;;;;5016598;28;20994;-80
2021/10/10 03:49:44;;;;;;;34.50;11.33;;;;;;;;;;5015770;28;20453;-80
2021/10/10 03:52:11;;;;;;;38.97;10.90;;;;;;;;;;5017268;28;20457;-80
2021/10/10 03:57:29;;;;;;;37.83;12.53;;;;;;;;;;5016524;28;21058;-81
2021/10/10 03:59:58;;;;;;;39.97;10.47;;;;;;;;;;5003340;28;20838;-80
2021/10/10 04:02:25;;;;;;;36.53;11.00;;;;;;;;;;4997216;28;20465;-80
2021/10/10 04:04:53;;;;;;;41.87;13.23;;;;;;;;;;4997097;28;20458;-80
2021/10/10 04:07:20;;;;;;;36.20;10.50;;;;;;;;;;4996467;28;20479;-81
2021/10/10 04:09:47;;;;;;;34.70;10.87;;;;;;;;;;4997593;28;20454;-80
2021/10/10 04:12:14;;;;;;;41.03;10.20;;;;;;;;;;4996704;28;20470;-81
2021/10/10 04:14:43;;;;;;;38.50;10.23;;;;;;;;;;4996815;28;20455;-80
2021/10/10 04:17:10;;;;;;;35.60;12.63;;;;;;;;;;4996728;28;20504;-81
2021/10/10 04:19:37;;;;;;;33.13;10.33;;;;;;;;;;4997815;28;20462;-81
2021/10/10 04:22:05;;;;;;;36.10;11.00;;;;;;;;;;4996911;28;20997;-80
2021/10/10 04:24:32;;;;;;;33.30;10.00;;;;;;;;;;4997322;28;20903;-81
2021/10/10 04:26:59;;;;;;;34.37;10.13;;;;;;;;;;4997882;28;20488;-82
2021/10/10 04:29:26;;;;;;;36.57;12.00;;;;;;;;;;4997828;28;20468;-82
2021/10/10 04:31:55;;;;;;;36.13;9.83;;;;;;;;;;4997273;28;20450;-81
2021/10/10 04:34:22;;;;;;;39.50;10.93;;;;;;;;;;4997347;28;20477;-82
2021/10/10 04:36:49;;;;;;;39.03;11.43;;;;;;;;;;4997317;28;20494;-82
2021/10/10 04:39:16;;;;;;;34.00;9.27;;;;;;;;;;4998024;28;20958;-82
2021/10/10 04:41:43;;;;;;;39.93;10.63;;;;;;;;;;5006223;28;20541;-81
2021/10/10 04:44:11;;;;;;;34.63;9.00;;;;;;;;;;5001281;28;20484;-81
2021/10/10 04:46:38;;;;;;;35.97;10.50;;;;;;;;;;4995437;28;20481;-81
2021/10/10 04:49:06;;;;;;;31.40;9.43;;;;;;;;;;4997007;28;20454;-81
2021/10/10 04:51:33;;;;;;;35.87;10.10;;;;;;;;;;4996839;28;20855;-81
2021/10/10 04:54:00;;;;;;;37.40;11.50;;;;;;;;;;4996003;28;20455;-82
2021/10/10 04:56:27;;;;;;;37.47;9.63;;;;;;;;;;4996021;28;21021;-81
2021/10/10 04:58:55;;;;;;;34.03;9.27;;;;;;;;;;4996484;28;20482;-81
2021/10/10 05:01:22;;;;;;;39.27;10.90;;;;;;;;;;4996044;28;20966;-81
2021/10/10 05:03:49;;;;;;;35.00;11.03;;;;;;;;;;4996635;28;20454;-82
2021/10/10 05:06:17;;;;;;;34.70;9.10;;;;;;;;;;4995844;28;20461;-81
2021/10/10 05:08:44;;;;;;;33.80;9.27;;;;;;;;;;4996233;28;20443;-82
2021/10/10 05:11:11;;;;;;;35.50;9.53;;;;;;;;;;4996392;28;20462;-81
2021/10/10 05:13:38;;;;;;;36.23;10.40;;;;;;;;;;4996427;28;20839;-82
2021/10/10 05:16:06;;;;;;;37.00;11.67;;;;;;;;;;4996253;28;20442;-81
2021/10/10 05:18:33;;;;;;;37.00;9.67;;;;;;;;;;5000255;28;21025;-82
2021/10/10 05:21:00;;;;;;;34.10;8.60;;;;;;;;;;5015443;28;20458;-81
2021/10/10 05:23:29;;;;;;;36.77;9.40;;;;;;;;;;5016177;28;20452;-80
2021/10/10 05:25:56;;;;;;;35.40;10.70;;;;;;;;;;5016191;28;20460;-81
2021/10/10 05:28:23;;;;;;;35.67;10.07;;;;;;;;;;5012658;28;20509;-81
2021/10/10 05:30:51;;;;;;;37.10;10.53;;;;;;;;;;4996050;28;20458;-82
2021/10/10 05:33:19;;;;;;;36.27;10.33;;;;;;;;;;4998357;28;20458;-82
2021/10/10 05:35:46;;;;;;;38.13;10.17;;;;;;;;;;4999276;28;20462;-81
2021/10/10 05:38:13;;;;;;;38.20;11.17;;;;;;;;;;4999494;28;20551;-81
2021/10/10 05:40:42;;;;;;;36.97;9.07;;;;;;;;;;4999429;28;20453;-82
2021/10/10 05:43:09;;;;;;;37.40;11.83;;;;;;;;;;4999119;28;20458;-82
2021/10/10 05:45:36;;;;;;;37.10;10.17;;;;;;;;;;4999521;28;20453;-81
2021/10/10 05:48:03;;;;;;;37.63;10.70;;;;;;;;;;4998904;28;20474;-81
2021/10/10 05:50:30;;;;;;;36.10;9.93;;;;;;;;;;5017996;28;20452;-81
2021/10/10 05:52:58;;;;;;;35.57;10.47;;;;;;;;;;5019267;28;20453;-82
2021/10/10 05:55:26;;;;;;;36.00;9.63;;;;;;;;;;5019350;28;20466;-81
2021/10/10 05:57:54;;;;;;;34.57;9.23;;;;;;;;;;5018236;28;21015;-81
2021/10/10 06:00:22;;;;;;;36.47;8.70;;;;;;;;;;5000613;28;20459;-82
2021/10/10 06:02:49;;;;;;;37.90;10.27;;;;;;;;;;4999519;28;20459;-82
2021/10/10 06:05:17;;;;;;;33.10;8.50;;;;;;;;;;4999824;28;20454;-81
2021/10/10 06:07:44;;;;;;;36.57;9.03;;;;;;;;;;4998800;28;20481;-82
2021/10/10 06:10:11;;;;;;;34.27;8.97;;;;;;;;;;5015733;28;20465;-82
2021/10/10 06:12:39;;;;;;;36.47;10.10;;;;;;;;;;5019107;28;20453;-80
2021/10/10 06:15:09;;;;;;;36.63;10.43;;;;;;;;;;5018784;28;20468;-81
2021/10/10 06:17:36;;;;;;;33.83;8.40;;;;;;;;;;5018137;28;20491;-81
2021/10/10 06:20:05;;;;;;;34.60;9.20;;;;;;;;;;5003705;28;20485;-81
2021/10/10 06:22:32;;;;;;;35.53;9.27;;;;;;;;;;4999262;28;20871;-81
2021/10/10 06:24:59;;;;;;;34.97;9.47;;;;;;;;;;4998592;28;20457;-82
2021/10/10 06:27:26;;;;;;;38.23;10.30;;;;;;;;;;4998655;28;21027;-81
2021/10/10 06:29:53;;;;;;;33.93;9.13;;;;;;;;;;5011583;28;20454;-82
2021/10/10 06:32:21;;;;;;;39.00;9.70;;;;;;;;;;5018275;28;20446;-81
2021/10/10 06:34:49;;;;;;;37.57;9.27;;;;;;;;;;5018066;28;20444;-82
2021/10/10 06:37:16;;;;;;;37.00;10.17;;;;;;;;;;5017851;28;20480;-81
2021/10/10 06:39:43;;;;;;;35.80;9.43;;;;;;;;;;5006684;28;20454;-82
2021/10/10 06:42:10;;;;;;;35.80;10.27;;;;;;;;;;5007196;28;20451;-80
2021/10/10 06:44:38;;;;;;;34.30;9.80;;;;;;;;;;5002328;28;20541;-81
2021/10/10 06:47:05;;;;;;;34.83;9.57;;;;;;;;;;4997913;28;20482;-82
2021/10/10 06:49:34;;;;;;;32.80;9.10;;;;;;;;;;4999742;28;20654;-81
2021/10/10 06:52:01;;;;;;;34.50;9.30;;;;;;;;;;5000001;28;20463;-81
2021/10/10 06:54:28;;;;;;;35.93;10.33;;;;;;;;;;5000355;28;21051;-81
2021/10/10 06:56:55;;;;;;;33.60;9.77;;;;;;;;;;4999718;28;20466;-81
2021/10/10 06:59:22;;;;;;;34.07;10.10;;;;;;;;;;5010374;28;20576;-82
2021/10/10 07:01:49;;;;;;;32.70;9.63;;;;;;;;;;5019144;28;20457;-82
2021/10/10 07:04:17;;;;;;;32.93;10.10;;;;;;;;;;5017921;28;20457;-82
2021/10/10 07:06:45;;;;;;;32.10;9.77;;;;;;;;;;5018371;28;20541;-82
2021/10/10 07:09:12;;;;;;;31.23;9.20;;;;;;;;;;5016335;28;20458;-82
2021/10/10 07:11:40;;;;;;;31.40;9.43;;;;;;;;;;5018502;28;20979;-82
2021/10/10 07:14:07;;;;;;;35.30;11.30;;;;;;;;;;5019046;28;20464;-82
2021/10/10 07:16:35;;;;;;;30.90;9.70;;;;;;;;;;5018655;28;20470;-82
2021/10/10 07:19:02;;;;;;;30.50;9.80;;;;;;;;;;5015316;28;20566;-82
2021/10/10 07:21:41;;;;;;;32.70;10.73;;;;;;;;;;5017221;28;20448;-82
2021/10/10 18:48:58;;;;;;;41.27;17.17;;;;;;;;;;5162122;27;20342;-85
2021/10/10 18:51:28;;;;;;;40.90;17.53;;;;;;;;;;5148148;27;20459;-86
2021/10/10 18:53:55;;;;;;;34.87;15.60;;;;;;;;;;5157605;27;20443;-85
2021/10/10 18:56:23;;;;;;;36.40;16.93;;;;;;;;;;5166598;27;20507;-82
2021/10/10 18:58:50;;;;;;;35.83;17.00;;;;;;;;;;5166840;27;20441;-83
2021/10/10 19:01:18;;;;;;;34.90;16.77;;;;;;;;;;5163572;27;20494;-82
2021/10/10 19:03:45;;;;;;;36.83;18.20;;;;;;;;;;5163089;27;20444;-83
2021/10/10 19:06:13;;;;;;;37.73;16.40;;;;;;;;;;5164472;27;20594;-82
2021/10/10 19:08:40;;;;;;;33.40;16.17;;;;;;;;;;5161672;27;20479;-83
2021/10/10 19:11:09;;;;;;;37.93;17.87;;;;;;;;;;5153936;27;20466;-81
2021/10/10 19:13:36;;;;;;;36.47;16.17;;;;;;;;;;5146162;27;20519;-82
2021/10/10 19:16:03;;;;;;;38.63;17.63;;;;;;;;;;5165031;27;20467;-83
2021/10/10 19:18:30;;;;;;;37.93;18.17;;;;;;;;;;5160727;27;20444;-82
2021/10/10 19:20:57;;;;;;;37.60;17.30;;;;;;;;;;5146627;27;20479;-84
2021/10/10 19:23:26;;;;;;;34.50;16.37;;;;;;;;;;5152388;27;20460;-83
2021/10/10 19:25:53;;;;;;;36.13;17.27;;;;;;;;;;5146496;27;20556;-83
2021/10/10 19:28:24;;;;;;;35.50;17.17;;;;;;;;;;5162746;27;20479;-83
2021/10/10 19:30:51;;;;;;;39.07;18.87;;;;;;;;;;5150200;27;20468;-85
2021/10/10 19:33:18;;;;;;;40.43;19.50;;;;;;;;;;5148686;27;20948;-86
2021/10/10 19:35:45;;;;;;;38.47;19.53;;;;;;;;;;5149602;27;20447;-86
2021/10/10 19:38:13;;;;;;;43.60;20.60;;;;;;;;;;5144281;27;20444;-86
2021/10/10 19:40:41;;;;;;;39.00;19.47;;;;;;;;;;5150657;27;20848;-86
2021/10/10 19:43:08;;;;;;;39.63;19.83;;;;;;;;;;5140727;27;20440;-86
2021/10/10 19:45:36;;;;;;;41.03;19.20;;;;;;;;;;5146695;27;20447;-86
2021/10/10 19:48:03;;;;;;;39.63;18.13;;;;;;;;;;5148849;27;20475;-85
2021/10/10 19:50:30;;;;;;;40.60;19.50;;;;;;;;;;5149818;27;20474;-86
2021/10/10 19:52:59;;;;;;;38.17;19.10;;;;;;;;;;5146342;27;20457;-85
2021/10/10 19:55:26;;;;;;;30.07;15.50;;;;;;;;;;5143814;27;20734;-85
2021/10/10 19:57:54;;;;;;;32.80;16.30;;;;;;;;;;5140851;27;20451;-86
2021/10/10 20:00:21;;;;;;;38.43;18.10;;;;;;;;;;5129229;27;20482;-86
2021/10/10 20:02:49;;;;;;;39.20;20.70;;;;;;;;;;5139139;27;20549;-85
2021/10/10 20:05:16;;;;;;;38.70;19.40;;;;;;;;;;5140036;27;20448;-84
2021/10/10 20:07:45;;;;;;;38.80;18.40;;;;;;;;;;5141775;27;21058;-84
2021/10/10 20:10:12;;;;;;;45.73;21.73;;;;;;;;;;5138228;27;20470;-85
2021/10/10 20:12:39;;;;;;;39.80;19.40;;;;;;;;;;5144303;27;20815;-86
2021/10/10 20:15:08;;;;;;;42.50;18.70;;;;;;;;;;5142121;27;20440;-85
2021/10/10 20:17:36;;;;;;;40.90;19.40;;;;;;;;;;5143177;27;20531;-85
2021/10/10 20:20:04;;;;;;;43.43;20.00;;;;;;;;;;5143648;27;20556;-85
2021/10/10 20:22:32;;;;;;;41.53;20.97;;;;;;;;;;5140441;27;20445;-86
2021/10/10 20:25:00;;;;;;;38.53;19.37;;;;;;;;;;5139586;27;20543;-85
2021/10/10 20:27:27;;;;;;;43.30;22.07;;;;;;;;;;5143761;27;20465;-85
2021/10/10 20:29:54;;;;;;;47.43;22.80;;;;;;;;;;5143026;27;20551;-85
2021/10/10 20:32:22;;;;;;;42.37;22.70;;;;;;;;;;5155495;27;20442;-86
2021/10/10 20:34:49;;;;;;;41.13;20.77;;;;;;;;;;5148113;27;20452;-85
2021/10/10 20:37:17;;;;;;;43.77;23.43;;;;;;;;;;5139232;27;20500;-85
2021/10/10 20:39:44;;;;;;;40.00;20.60;;;;;;;;;;5138828;27;20445;-85
2021/10/10 20:42:12;;;;;;;42.20;20.57;;;;;;;;;;5134811;27;20457;-85
2021/10/10 20:44:39;;;;;;;39.73;22.40;;;;;;;;;;5122898;27;20452;-86
2021/10/10 20:47:06;;;;;;;41.60;22.67;;;;;;;;;;5123722;27;20487;-85
2021/10/10 20:49:34;;;;;;;46.23;21.50;;;;;;;;;;5117473;28;20475;-85
2021/10/10 20:52:02;;;;;;;42.27;20.90;;;;;;;;;;5127109;27;20828;-85
2021/10/10 20:54:30;;;;;;;40.90;21.37;;;;;;;;;;5136938;27;20986;-85
2021/10/10 20:56:57;;;;;;;44.10;20.60;;;;;;;;;;5134677;27;20529;-85
2021/10/10 20:59:25;;;;;;;43.03;23.33;;;;;;;;;;5138838;27;20474;-85
2021/10/10 21:01:52;;;;;;;41.93;22.30;;;;;;;;;;5139524;27;20543;-85
2021/10/10 21:04:19;;;;;;;42.33;22.40;;;;;;;;;;5138151;27;20436;-85
2021/10/10 21:06:51;;;;;;;44.47;22.30;;;;;;;;;;5138100;27;20446;-85
2021/10/10 21:09:18;;;;;;;43.10;22.70;;;;;;;;;;5116694;27;20522;-85
2021/10/10 21:11:45;;;;;;;47.63;23.53;;;;;;;;;;5134508;27;21011;-85
2021/10/10 21:14:15;;;;;;;44.90;23.40;;;;;;;;;;5137249;27;20458;-84
2021/10/10 21:16:42;;;;;;;49.17;23.33;;;;;;;;;;5113534;28;20833;-85
2021/10/10 21:19:09;;;;;;;43.20;22.33;;;;;;;;;;5113975;28;20449;-84
2021/10/10 21:21:36;;;;;;;50.77;23.93;;;;;;;;;;5115157;27;20453;-84
2021/10/10 21:24:06;;;;;;;43.67;22.40;;;;;;;;;;5133590;27;20451;-85
2021/10/10 21:26:34;;;;;;;46.67;23.80;;;;;;;;;;5134314;27;20474;-85
2021/10/10 21:29:04;;;;;;;46.20;24.10;;;;;;;;;;5129194;27;21005;-85
2021/10/10 21:31:36;;;;;;;47.17;23.83;;;;;;;;;;5128044;27;20554;-85
2021/10/10 21:34:13;;;;;;;49.17;24.43;;;;;;;;;;5127979;27;20449;-84
2021/10/10 21:36:44;;;;;;;45.07;24.30;;;;;;;;;;5126032;27;20463;-85
2021/10/10 21:39:15;;;;;;;43.23;21.93;;;;;;;;;;5132657;27;20448;-85
2021/10/10 21:41:42;;;;;;;44.77;22.90;;;;;;;;;;5125455;27;20472;-85
2021/10/10 21:44:09;;;;;;;47.73;24.40;;;;;;;;;;5131818;27;20449;-85
2021/10/10 21:46:37;;;;;;;49.07;24.33;;;;;;;;;;5133127;27;20443;-86
2021/10/10 21:49:05;;;;;;;46.10;23.43;;;;;;;;;;5130786;27;20512;-85
2021/10/10 21:51:32;;;;;;;43.20;23.37;;;;;;;;;;5132179;27;20479;-86
2021/10/10 21:54:03;;;;;;;48.60;23.23;;;;;;;;;;5126285;27;20453;-85
2021/10/10 21:56:32;;;;;;;43.83;23.30;;;;;;;;;;5130882;27;20448;-85
2021/10/10 21:59:00;;;;;;;46.33;23.17;;;;;;;;;;5132727;27;20436;-86
2021/10/10 22:01:28;;;;;;;45.93;23.67;;;;;;;;;;5130941;27;20465;-85
2021/10/10 22:03:55;;;;;;;49.40;25.07;;;;;;;;;;5132821;27;20981;-85
2021/10/10 22:06:22;;;;;;;47.30;24.20;;;;;;;;;;5134864;27;20452;-85
2021/10/10 22:08:49;;;;;;;45.03;24.20;;;;;;;;;;5134178;27;20918;-85
2021/10/10 22:11:17;;;;;;;47.57;23.77;;;;;;;;;;5135768;27;20457;-85
2021/10/10 22:13:46;;;;;;;52.37;24.73;;;;;;;;;;5136313;27;20529;-85
2021/10/10 22:16:13;;;;;;;45.87;24.30;;;;;;;;;;5134501;27;20460;-84
2021/10/10 22:18:40;;;;;;;47.90;25.20;;;;;;;;;;5135906;27;20534;-85
2021/10/10 22:21:07;;;;;;;40.20;22.60;;;;;;;;;;5134786;27;20853;-85
2021/10/10 22:23:39;;;;;;;45.60;24.00;;;;;;;;;;5137863;27;20497;-85
2021/10/10 22:26:11;;;;;;;42.97;23.20;;;;;;;;;;5139567;27;20475;-85
2021/10/10 22:31:24;;;;;;;46.87;24.73;;;;;;;;;;5127337;22;20551;-83
2021/10/10 22:33:52;;;;;;;46.23;26.30;;;;;;;;;;5073545;28;20834;-83
2021/10/10 22:36:20;;;;;;;47.10;25.90;;;;;;;;;;5072569;28;20446;-84
2021/10/10 22:38:47;;;;;;;46.10;24.43;;;;;;;;;;5073253;28;20453;-84
2021/10/10 22:41:16;;;;;;;43.13;22.77;;;;;;;;;;5074305;28;20471;-82
2021/10/10 22:43:43;;;;;;;48.10;28.07;;;;;;;;;;5073621;28;20458;-84
2021/10/10 22:46:11;;;;;;;46.33;25.53;;;;;;;;;;5074419;28;20443;-85
2021/10/10 22:48:41;;;;;;;48.57;26.33;;;;;;;;;;5073298;28;21010;-86
2021/10/10 22:51:08;;;;;;;47.30;26.03;;;;;;;;;;5076082;28;20469;-83
2021/10/10 22:53:35;;;;;;;48.70;27.73;;;;;;;;;;5073092;28;20993;-82
2021/10/10 22:56:02;;;;;;;50.50;26.90;;;;;;;;;;5074298;28;20451;-84
2021/10/10 22:58:30;;;;;;;47.77;28.07;;;;;;;;;;5074765;28;20441;-84
2021/10/10 23:00:57;;;;;;;49.67;27.33;;;;;;;;;;5077027;28;20462;-85
2021/10/10 23:03:24;;;;;;;60.27;33.53;;;;;;;;;;5078197;28;20456;-84
2021/10/10 23:05:53;;;;;;;52.43;28.30;;;;;;;;;;5076953;28;20963;-84
2021/10/10 23:08:20;;;;;;;53.43;29.13;;;;;;;;;;5074732;28;20474;-84
2021/10/10 23:10:47;;;;;;;49.77;27.70;;;;;;;;;;5075809;28;20478;-83
2021/10/10 23:13:14;;;;;;;55.13;29.37;;;;;;;;;;5073498;28;20837;-84
2021/10/10 23:15:42;;;;;;;56.83;31.20;;;;;;;;;;5081858;28;20456;-84
2021/10/10 23:18:09;;;;;;;56.10;31.60;;;;;;;;;;5086961;28;20435;-84
2021/10/10 23:20:38;;;;;;;53.43;31.10;;;;;;;;;;5059939;28;20618;-84
2021/10/10 23:23:06;;;;;;;58.53;32.83;;;;;;;;;;5075292;28;20455;-84
2021/10/10 23:25:33;;;;;;;57.73;31.27;;;;;;;;;;5075234;28;20458;-84
2021/10/10 23:28:00;;;;;;;58.83;31.97;;;;;;;;;;5073753;28;20443;-83
2021/10/10 23:30:28;;;;;;;58.20;30.50;;;;;;;;;;5073515;28;20478;-84
2021/10/10 23:32:55;;;;;;;59.33;31.90;;;;;;;;;;5074518;28;20453;-84
2021/10/10 23:35:22;;;;;;;56.93;32.10;;;;;;;;;;5078415;28;20447;-83
2021/10/10 23:37:49;;;;;;;57.13;32.67;;;;;;;;;;5077315;28;20454;-82
2021/10/10 23:40:18;;;;;;;61.80;33.00;;;;;;;;;;5077544;28;20445;-84
2021/10/10 23:42:45;;;;;;;59.93;33.83;;;;;;;;;;5077322;28;20464;-84
2021/10/10 23:45:12;;;;;;;58.50;33.47;;;;;;;;;;5078870;28;20987;-83
2021/10/10 23:47:40;;;;;;;65.83;34.40;;;;;;;;;;5070918;28;20459;-83
2021/10/10 23:50:08;;;;;;;69.73;36.10;;;;;;;;;;5089706;28;20496;-82
2021/10/10 23:52:37;;;;;;;60.50;33.93;;;;;;;;;;5090253;28;20453;-84
2021/10/10 23:55:05;;;;;;;69.43;36.90;;;;;;;;;;5079913;28;20464;-85
2021/10/10 23:57:34;;;;;;;59.03;35.10;;;;;;;;;;5075343;28;20468;-84
